Time;durP1;ratioP1;P1;durP2;ratioP2;P2;SDS_P1;SDS_P2;PMS_P1;PMS_P2;Temp;Humidity;BMP_temperature;BMP_pressure;BME280_temperature;BME280_humidity;BME280_pressure;Samples;Min_cycle;Max_cycle;Signal;HPM_P1;HPM_P2
2022/11/06 00:00:57;;;;;;;;;;;7.50;99.90;;;;;;5027257;28;19979;-61
2022/11/06 00:03:25;;;;;;;;;;;7.50;99.90;;;;;;5024209;28;19975;-62
2022/11/06 00:08:42;;;;;;;;;;;7.40;99.90;;;;;;4981030;28;19971;-62
2022/11/06 00:11:10;;;;;;;;;;;7.40;99.90;;;;;;5006409;28;19976;-62
2022/11/06 00:13:52;;;;;;;;;;;7.40;99.90;;;;;;5002777;28;19968;-62
2022/11/06 00:16:20;;;;;;;;;;;7.30;99.90;;;;;;5003121;28;19975;-62
2022/11/06 00:18:47;;;;;;;;;;;7.20;99.90;;;;;;5003373;28;19971;-62
2022/11/06 00:21:20;;;;;;;;;;;7.20;99.90;;;;;;5000068;28;19969;-61
2022/11/06 00:23:49;;;;;;;;;;;7.10;99.90;;;;;;5000385;28;19969;-62
2022/11/06 00:26:18;;;;;;;;;;;7.10;99.90;;;;;;5000761;28;19969;-62
2022/11/06 00:28:46;;;;;;;;;;;7.00;99.90;;;;;;5002615;28;20476;-61
2022/11/06 00:31:15;;;;;;;;;;;6.90;99.90;;;;;;5002223;28;19979;-64
2022/11/06 00:33:43;;;;;;;;;;;6.90;99.90;;;;;;5005679;28;19971;-64
2022/11/06 00:36:12;;;;;;;;;;;6.90;99.90;;;;;;5012286;28;19968;-63
2022/11/06 00:38:42;;;;;;;;;;;6.90;99.90;;;;;;5012417;28;19972;-64
2022/11/06 00:41:10;;;;;;;;;;;6.80;99.90;;;;;;5004923;28;19969;-64
2022/11/06 00:43:38;;;;;;;;;;;6.80;99.90;;;;;;5006753;28;19987;-64
2022/11/06 00:46:07;;;;;;;;;;;6.80;99.90;;;;;;5004705;28;20357;-64
2022/11/06 00:48:35;;;;;;;;;;;6.70;99.90;;;;;;5004414;28;19969;-64
2022/11/06 00:51:03;;;;;;;;;;;6.70;99.90;;;;;;4997095;28;19972;-64
2022/11/06 00:53:31;;;;;;;;;;;6.70;99.90;;;;;;5004685;28;19969;-64
2022/11/06 00:56:05;;;;;;;;;;;6.70;99.90;;;;;;5009729;28;19968;-64
2022/11/06 00:58:34;;;;;;;;;;;6.70;99.90;;;;;;5002800;28;21386;-65
2022/11/06 01:01:06;;;;;;;;;;;6.70;99.90;;;;;;5002776;28;19965;-64
2022/11/06 01:03:33;;;;;;;;;;;6.60;99.90;;;;;;5006940;28;19972;-65
2022/11/06 01:06:08;;;;;;;;;;;6.60;99.90;;;;;;4999472;28;19971;-64
2022/11/06 01:08:36;;;;;;;;;;;6.60;99.90;;;;;;5004559;28;19971;-64
2022/11/06 01:11:10;;;;;;;;;;;6.50;99.90;;;;;;5007764;28;19966;-64
2022/11/06 01:13:37;;;;;;;;;;;6.80;99.90;;;;;;5004060;28;19969;-63
2022/11/06 01:16:06;;;;;;;;;;;7.30;99.90;;;;;;5004152;28;19964;-64
2022/11/06 01:18:34;;;;;;;;;;;7.60;99.90;;;;;;4996793;28;19976;-64
2022/11/06 01:21:03;;;;;;;;;;;7.80;99.90;;;;;;4994158;28;19976;-64
2022/11/06 01:23:31;;;;;;;;;;;7.90;99.90;;;;;;5014178;28;20335;-64
2022/11/06 01:25:59;;;;;;;;;;;8.00;99.90;;;;;;5014048;28;19970;-64
2022/11/06 01:28:28;;;;;;;;;;;8.10;99.90;;;;;;5013084;28;19969;-64
2022/11/06 01:30:56;;;;;;;;;;;8.20;99.90;;;;;;5013224;28;19968;-64
2022/11/06 01:33:24;;;;;;;;;;;8.30;99.90;;;;;;5013642;28;20000;-64
2022/11/06 01:35:52;;;;;;;;;;;8.30;99.90;;;;;;5008157;28;19967;-64
2022/11/06 01:38:20;;;;;;;;;;;8.40;99.90;;;;;;5009142;28;19975;-64
2022/11/06 01:40:48;;;;;;;;;;;8.40;99.90;;;;;;5000188;28;19981;-64
2022/11/06 01:43:17;;;;;;;;;;;8.40;99.90;;;;;;5001395;28;19973;-64
2022/11/06 01:45:47;;;;;;;;;;;8.20;99.90;;;;;;5006562;28;20342;-64
2022/11/06 01:48:16;;;;;;;;;;;8.10;99.90;;;;;;5002078;28;20353;-65
2022/11/06 01:50:46;;;;;;;;;;;7.80;99.90;;;;;;5002842;28;20063;-64
2022/11/06 01:53:14;;;;;;;;;;;7.70;99.90;;;;;;5000737;28;20389;-64
2022/11/06 01:55:43;;;;;;;;;;;7.80;99.90;;;;;;5004732;28;19975;-64
2022/11/06 01:58:12;;;;;;;;;;;8.10;99.90;;;;;;5007048;28;19985;-61
2022/11/06 02:00:42;;;;;;;;;;;8.20;99.90;;;;;;5011529;28;20529;-61
2022/11/06 02:03:12;;;;;;;;;;;8.30;99.90;;;;;;5004105;28;19967;-62
2022/11/06 02:05:40;;;;;;;;;;;8.30;99.90;;;;;;5010363;28;20323;-61
2022/11/06 02:08:10;;;;;;;;;;;8.40;99.90;;;;;;5011147;28;19972;-61
2022/11/06 02:10:38;;;;;;;;;;;8.50;99.90;;;;;;5006548;28;19988;-64
2022/11/06 02:13:24;;;;;;;;;;;8.50;99.90;;;;;;5010126;28;19977;-63
2022/11/06 02:15:54;;;;;;;;;;;8.30;99.90;;;;;;5007268;28;20341;-63
2022/11/06 02:18:30;;;;;;;;;;;8.40;99.90;;;;;;5003278;28;20326;-62
2022/11/06 02:21:12;;;;;;;;;;;8.50;99.90;;;;;;5010136;28;19968;-62
2022/11/06 02:23:53;;;;;;;;;;;8.50;99.90;;;;;;5008178;28;19965;-63
2022/11/06 02:26:37;;;;;;;;;;;8.40;99.90;;;;;;5002586;28;20349;-63
2022/11/06 02:29:09;;;;;;;;;;;8.40;99.90;;;;;;5002922;28;19968;-63
2022/11/06 02:31:41;;;;;;;;;;;8.50;99.90;;;;;;4996233;28;19969;-63
2022/11/06 02:34:12;;;;;;;;;;;8.50;99.90;;;;;;4999621;28;20333;-63
2022/11/06 02:36:41;;;;;;;;;;;8.60;99.90;;;;;;5004875;28;19971;-62
2022/11/06 02:39:14;;;;;;;;;;;8.70;99.90;;;;;;5002142;28;19976;-64
2022/11/06 02:41:43;;;;;;;;;;;8.80;99.90;;;;;;5006925;28;19991;-63
2022/11/06 02:44:15;;;;;;;;;;;8.70;99.90;;;;;;5009943;28;19968;-63
2022/11/06 02:46:45;;;;;;;;;;;8.60;99.90;;;;;;5006475;28;20056;-63
2022/11/06 02:49:18;;;;;;;;;;;8.60;99.90;;;;;;5003826;28;20330;-63
2022/11/06 02:51:48;;;;;;;;;;;8.40;99.90;;;;;;5009415;28;20461;-62
2022/11/06 02:54:19;;;;;;;;;;;8.40;99.90;;;;;;5010618;28;19987;-62
2022/11/06 02:56:47;;;;;;;;;;;8.40;99.90;;;;;;4997654;28;20456;-62
2022/11/06 02:59:20;;;;;;;;;;;8.40;99.90;;;;;;4994841;28;19980;-62
2022/11/06 03:01:49;;;;;;;;;;;8.50;99.90;;;;;;5004654;28;19965;-62
2022/11/06 03:04:21;;;;;;;;;;;8.40;99.90;;;;;;4997404;28;19985;-62
2022/11/06 03:06:51;;;;;;;;;;;8.20;99.90;;;;;;5007258;28;19965;-63
2022/11/06 03:09:20;;;;;;;;;;;8.10;99.90;;;;;;4998458;28;20347;-62
2022/11/06 03:11:51;;;;;;;;;;;7.80;99.90;;;;;;5002228;28;20341;-62
2022/11/06 03:14:23;;;;;;;;;;;7.80;99.90;;;;;;5003247;28;19976;-63
2022/11/06 03:16:53;;;;;;;;;;;7.70;99.90;;;;;;5003001;28;20434;-61
2022/11/06 03:19:24;;;;;;;;;;;7.90;99.90;;;;;;4998191;28;19970;-62
2022/11/06 03:21:54;;;;;;;;;;;8.00;99.90;;;;;;5004503;28;19965;-62
2022/11/06 03:24:27;;;;;;;;;;;8.00;99.90;;;;;;5000178;28;19969;-62
2022/11/06 03:26:59;;;;;;;;;;;8.00;99.90;;;;;;5004476;28;20031;-62
2022/11/06 03:29:30;;;;;;;;;;;7.90;99.90;;;;;;5001347;28;19969;-62
2022/11/06 03:32:00;;;;;;;;;;;7.80;99.90;;;;;;4996502;28;20369;-61
2022/11/06 03:34:29;;;;;;;;;;;7.70;99.90;;;;;;5001784;28;20461;-62
2022/11/06 03:37:00;;;;;;;;;;;7.60;99.90;;;;;;5009027;28;19972;-61
2022/11/06 03:39:31;;;;;;;;;;;7.70;99.90;;;;;;5006240;28;19965;-62
2022/11/06 03:42:00;;;;;;;;;;;7.70;99.90;;;;;;5005904;28;19973;-62
2022/11/06 03:44:32;;;;;;;;;;;7.60;99.90;;;;;;5005594;28;19976;-62
2022/11/06 03:47:02;;;;;;;;;;;7.50;99.90;;;;;;5007328;28;19964;-61
2022/11/06 03:49:31;;;;;;;;;;;7.60;99.90;;;;;;5003451;28;20008;-62
2022/11/06 03:52:00;;;;;;;;;;;7.60;99.90;;;;;;5006950;28;20619;-61
2022/11/06 03:54:30;;;;;;;;;;;7.60;99.90;;;;;;5007567;28;20007;-62
2022/11/06 03:57:00;;;;;;;;;;;7.60;99.90;;;;;;5002971;28;19965;-62
2022/11/06 03:59:33;;;;;;;;;;;7.70;99.90;;;;;;5004103;28;19976;-63
2022/11/06 04:02:02;;;;;;;;;;;7.80;99.90;;;;;;5004887;28;19965;-61
2022/11/06 04:04:32;;;;;;;;;;;7.90;99.90;;;;;;4999620;28;19972;-62
2022/11/06 04:07:01;;;;;;;;;;;7.90;99.90;;;;;;5013376;28;19965;-62
2022/11/06 04:15:09;;;;;;;;;;;7.80;99.90;;;;;;5002566;28;19965;-62
2022/11/06 04:17:37;;;;;;;;;;;7.70;99.90;;;;;;5005277;28;19964;-63
2022/11/06 04:20:07;;;;;;;;;;;7.60;99.90;;;;;;5003802;28;19965;-62
2022/11/06 04:22:42;;;;;;;;;;;7.50;99.90;;;;;;4999336;28;20364;-63
2022/11/06 04:28:11;;;;;;;;;;;7.50;99.90;;;;;;5007242;28;19965;-61
2022/11/06 04:30:44;;;;;;;;;;;7.50;99.90;;;;;;5003904;28;19965;-62
2022/11/06 04:33:14;;;;;;;;;;;7.40;99.90;;;;;;5002211;28;19976;-62
2022/11/06 04:35:47;;;;;;;;;;;7.40;99.90;;;;;;5011149;28;19972;-62
2022/11/06 04:38:23;;;;;;;;;;;7.50;99.90;;;;;;5005572;28;19969;-62
2022/11/06 04:40:53;;;;;;;;;;;7.40;99.90;;;;;;5010847;28;19969;-63
2022/11/06 04:43:22;;;;;;;;;;;7.60;99.90;;;;;;5001752;28;19973;-62
2022/11/06 04:45:53;;;;;;;;;;;7.70;99.90;;;;;;5008683;28;19969;-63
2022/11/06 04:48:22;;;;;;;;;;;7.70;99.90;;;;;;5013387;28;19968;-63
2022/11/06 04:50:52;;;;;;;;;;;7.70;99.90;;;;;;5004639;28;19972;-63
2022/11/06 04:53:20;;;;;;;;;;;7.60;99.90;;;;;;5008899;28;19975;-62
2022/11/06 04:55:49;;;;;;;;;;;7.60;99.90;;;;;;5007962;28;19969;-62
2022/11/06 04:58:17;;;;;;;;;;;7.60;99.90;;;;;;5009341;28;19969;-62
2022/11/06 05:00:46;;;;;;;;;;;7.70;99.90;;;;;;5005197;28;19972;-62
2022/11/06 05:03:15;;;;;;;;;;;7.40;99.90;;;;;;5002557;28;19976;-62
2022/11/06 05:05:43;;;;;;;;;;;7.40;99.90;;;;;;5003673;28;19965;-62
2022/11/06 05:08:12;;;;;;;;;;;7.40;99.90;;;;;;5003973;28;20468;-62
2022/11/06 05:10:41;;;;;;;;;;;7.30;99.90;;;;;;5008841;28;20434;-62
2022/11/06 05:13:08;;;;;;;;;;;7.40;99.90;;;;;;5003645;28;19969;-62
2022/11/06 05:15:37;;;;;;;;;;;7.30;99.90;;;;;;5011702;28;19972;-62
2022/11/06 05:18:05;;;;;;;;;;;7.20;99.90;;;;;;4998741;28;19969;-62
2022/11/06 05:20:34;;;;;;;;;;;7.20;99.90;;;;;;5004066;28;20382;-62
2022/11/06 05:23:01;;;;;;;;;;;7.20;99.90;;;;;;5006856;28;19968;-62
2022/11/06 05:25:29;;;;;;;;;;;7.30;99.90;;;;;;5000294;28;20556;-62
2022/11/06 05:27:57;;;;;;;;;;;7.40;99.90;;;;;;5005809;28;19979;-62
2022/11/06 05:30:25;;;;;;;;;;;7.50;99.90;;;;;;4999167;28;20428;-62
2022/11/06 05:32:53;;;;;;;;;;;7.50;99.90;;;;;;5011248;28;19969;-62
2022/11/06 05:35:21;;;;;;;;;;;7.50;99.90;;;;;;5001347;28;19969;-62
2022/11/06 05:37:50;;;;;;;;;;;7.50;99.90;;;;;;5004741;28;19964;-62
2022/11/06 05:40:17;;;;;;;;;;;7.60;99.90;;;;;;4999509;28;19969;-63
2022/11/06 05:42:45;;;;;;;;;;;7.80;99.90;;;;;;5007532;28;20337;-62
2022/11/06 05:45:13;;;;;;;;;;;7.80;99.90;;;;;;5009382;28;19972;-63
2022/11/06 05:47:41;;;;;;;;;;;7.70;99.90;;;;;;4998647;28;19975;-62
2022/11/06 05:50:09;;;;;;;;;;;7.60;99.90;;;;;;4993812;28;19969;-62
2022/11/06 05:52:37;;;;;;;;;;;7.50;99.90;;;;;;4994368;28;19965;-62
2022/11/06 05:55:07;;;;;;;;;;;7.40;99.90;;;;;;5004792;28;19971;-62
2022/11/06 05:57:41;;;;;;;;;;;7.50;99.90;;;;;;5107039;23;20326;-62
2022/11/06 06:00:09;;;;;;;;;;;7.50;99.90;;;;;;5032278;28;20074;-62
2022/11/06 06:02:37;;;;;;;;;;;7.50;99.90;;;;;;5032078;28;19964;-62
2022/11/06 06:05:06;;;;;;;;;;;7.50;99.90;;;;;;5033071;28;19964;-62
2022/11/06 06:07:33;;;;;;;;;;;7.40;99.90;;;;;;5032955;28;19965;-62
2022/11/06 06:10:01;;;;;;;;;;;7.20;99.90;;;;;;5032715;28;19979;-62
2022/11/06 06:12:30;;;;;;;;;;;7.20;99.90;;;;;;5032786;28;19968;-63
2022/11/06 06:14:58;;;;;;;;;;;7.40;99.90;;;;;;5042778;28;20066;-63
2022/11/06 06:17:26;;;;;;;;;;;7.50;99.90;;;;;;5042830;28;19971;-63
2022/11/06 06:19:53;;;;;;;;;;;7.50;99.90;;;;;;5039791;28;20557;-63
2022/11/06 06:22:21;;;;;;;;;;;7.50;99.90;;;;;;5033780;28;19968;-62
2022/11/06 06:24:49;;;;;;;;;;;7.40;99.90;;;;;;5032254;28;19975;-62
2022/11/06 06:27:17;;;;;;;;;;;7.20;99.90;;;;;;5032666;28;19968;-62
2022/11/06 06:29:46;;;;;;;;;;;7.00;99.90;;;;;;5033119;28;19978;-62
2022/11/06 06:32:14;;;;;;;;;;;6.80;99.90;;;;;;5027907;28;19975;-62
2022/11/06 06:34:42;;;;;;;;;;;6.70;99.90;;;;;;5029259;28;19972;-62
2022/11/06 06:37:11;;;;;;;;;;;6.50;99.90;;;;;;5029633;28;20606;-63
2022/11/06 06:39:44;;;;;;;;;;;6.40;99.90;;;;;;5027246;28;19964;-63
2022/11/06 06:42:12;;;;;;;;;;;6.20;99.90;;;;;;5027102;28;19968;-62
2022/11/06 06:44:39;;;;;;;;;;;6.20;99.90;;;;;;5033879;28;19971;-62
2022/11/06 06:47:08;;;;;;;;;;;6.20;99.90;;;;;;5030532;28;20476;-62
2022/11/06 06:49:36;;;;;;;;;;;6.20;99.90;;;;;;5025009;28;19972;-62
2022/11/06 06:52:04;;;;;;;;;;;6.20;99.90;;;;;;5027317;28;20396;-63
2022/11/06 06:54:32;;;;;;;;;;;6.20;99.90;;;;;;5029037;28;20605;-65
2022/11/06 06:56:59;;;;;;;;;;;6.20;99.90;;;;;;5024508;28;19979;-65
2022/11/06 06:59:28;;;;;;;;;;;6.30;99.90;;;;;;5036779;28;19982;-65
2022/11/06 07:01:56;;;;;;;;;;;6.30;99.90;;;;;;5048375;28;19972;-65
2022/11/06 07:04:25;;;;;;;;;;;6.30;99.90;;;;;;5046798;28;20928;-63
2022/11/06 07:06:53;;;;;;;;;;;6.30;99.90;;;;;;5049589;28;19982;-63
2022/11/06 07:09:22;;;;;;;;;;;6.40;99.90;;;;;;5045176;28;19982;-63
2022/11/06 07:11:50;;;;;;;;;;;6.30;99.90;;;;;;5053937;28;20656;-62
2022/11/06 07:14:18;;;;;;;;;;;6.20;99.90;;;;;;5054379;28;20376;-63
2022/11/06 07:16:45;;;;;;;;;;;6.20;99.90;;;;;;5053338;28;19972;-63
2022/11/06 07:19:20;;;;;;;;;;;6.20;99.90;;;;;;5055074;28;20663;-62
2022/11/06 07:21:52;;;;;;;;;;;6.20;99.90;;;;;;5059545;28;19978;-62
2022/11/06 07:24:20;;;;;;;;;;;6.20;99.90;;;;;;5054112;28;19982;-62
2022/11/06 07:26:47;;;;;;;;;;;6.30;99.90;;;;;;5057601;28;20442;-63
2022/11/06 07:29:15;;;;;;;;;;;6.40;99.90;;;;;;5051762;28;19975;-63
2022/11/06 07:31:43;;;;;;;;;;;6.40;99.90;;;;;;5055229;28;19964;-61
2022/11/06 07:34:10;;;;;;;;;;;6.50;99.90;;;;;;5053735;28;20344;-63
2022/11/06 07:36:38;;;;;;;;;;;7.70;99.90;;;;;;5057865;28;19964;-64
2022/11/06 07:39:07;;;;;;;;;;;9.80;99.90;;;;;;5052188;28;20536;-64
2022/11/06 07:41:35;;;;;;;;;;;10.90;99.90;;;;;;5054788;28;19991;-63
2022/11/06 07:44:03;;;;;;;;;;;11.50;99.90;;;;;;5056944;28;19972;-63
2022/11/06 07:46:30;;;;;;;;;;;11.10;99.90;;;;;;5052321;28;19972;-63
2022/11/06 07:48:58;;;;;;;;;;;10.50;99.90;;;;;;5050137;28;20480;-64
2022/11/06 07:51:26;;;;;;;;;;;9.80;99.90;;;;;;5051174;28;20437;-62
2022/11/06 07:53:53;;;;;;;;;;;9.10;99.90;;;;;;5055628;28;19968;-63
2022/11/06 07:56:22;;;;;;;;;;;8.30;99.90;;;;;;5052927;28;19976;-63
2022/11/06 07:58:50;;;;;;;;;;;7.80;99.90;;;;;;5051940;28;19978;-63
2022/11/06 08:01:18;;;;;;;;;;;7.60;99.90;;;;;;5052871;28;20654;-63
2022/11/06 08:03:46;;;;;;;;;;;7.30;99.90;;;;;;5053276;28;20448;-62
2022/11/06 08:06:14;;;;;;;;;;;7.20;99.90;;;;;;5051303;28;19968;-62
2022/11/06 08:08:41;;;;;;;;;;;7.10;99.90;;;;;;5049590;28;19983;-63
2022/11/06 08:11:10;;;;;;;;;;;7.10;99.90;;;;;;5052927;28;19971;-63
2022/11/06 08:13:39;;;;;;;;;;;7.10;99.90;;;;;;5052233;28;19968;-63
2022/11/06 08:16:08;;;;;;;;;;;7.10;99.90;;;;;;5055111;28;20779;-63
2022/11/06 08:18:36;;;;;;;;;;;7.20;99.90;;;;;;5048706;28;20566;-63
2022/11/06 08:21:04;;;;;;;;;;;7.30;99.90;;;;;;5053667;28;19979;-62
2022/11/06 08:23:32;;;;;;;;;;;7.40;99.90;;;;;;5048470;28;20750;-63
2022/11/06 08:26:01;;;;;;;;;;;7.70;99.90;;;;;;5051579;28;20066;-63
2022/11/06 08:28:29;;;;;;;;;;;8.10;99.90;;;;;;5047554;28;20175;-63
2022/11/06 08:30:58;;;;;;;;;;;8.50;99.90;;;;;;5050584;28;19984;-62
2022/11/06 08:33:26;;;;;;;;;;;8.90;99.90;;;;;;5052311;28;19983;-63
2022/11/06 08:35:53;;;;;;;;;;;9.20;99.90;;;;;;5052325;28;19978;-63
2022/11/06 08:38:21;;;;;;;;;;;9.50;99.90;;;;;;5048516;28;20321;-63
2022/11/06 08:40:49;;;;;;;;;;;9.80;99.90;;;;;;5050655;28;20361;-63
2022/11/06 08:43:23;;;;;;;;;;;9.90;99.90;;;;;;5052701;28;19976;-62
2022/11/06 08:45:50;;;;;;;;;;;9.80;99.90;;;;;;5051808;28;19971;-62
2022/11/06 08:48:19;;;;;;;;;;;9.80;99.90;;;;;;5055104;28;20368;-63
2022/11/06 08:50:47;;;;;;;;;;;9.70;99.90;;;;;;5051828;28;19975;-63
2022/11/06 08:53:15;;;;;;;;;;;9.50;99.90;;;;;;5055128;28;19974;-62
2022/11/06 08:55:43;;;;;;;;;;;9.40;99.90;;;;;;5049370;28;20037;-63
2022/11/06 08:58:12;;;;;;;;;;;9.30;99.90;;;;;;5045307;28;19972;-63
2022/11/06 09:00:40;;;;;;;;;;;9.30;99.90;;;;;;5051701;28;19970;-63
2022/11/06 09:03:10;;;;;;;;;;;9.20;99.90;;;;;;5057349;28;19986;-64
2022/11/06 09:05:41;;;;;;;;;;;9.10;99.90;;;;;;5051539;28;20019;-63
2022/11/06 09:08:09;;;;;;;;;;;9.00;99.90;;;;;;5047029;28;19971;-63
2022/11/06 09:10:37;;;;;;;;;;;9.00;99.90;;;;;;5049237;28;19971;-63
2022/11/06 09:13:05;;;;;;;;;;;9.00;99.90;;;;;;5049268;28;19972;-66
2022/11/06 09:15:33;;;;;;;;;;;9.00;99.90;;;;;;5051786;28;19979;-63
2022/11/06 09:18:00;;;;;;;;;;;9.00;99.90;;;;;;5047168;28;19971;-63
2022/11/06 09:20:28;;;;;;;;;;;8.90;99.90;;;;;;5046576;28;19968;-64
2022/11/06 09:23:01;;;;;;;;;;;9.00;99.90;;;;;;5058397;28;20003;-63
2022/11/06 09:25:29;;;;;;;;;;;9.20;99.90;;;;;;5054504;28;20453;-63
2022/11/06 09:27:57;;;;;;;;;;;9.40;99.90;;;;;;5046774;28;19971;-64
2022/11/06 09:30:27;;;;;;;;;;;9.60;99.90;;;;;;5048970;28;20097;-64
2022/11/06 09:32:57;;;;;;;;;;;10.00;99.90;;;;;;5047913;28;19973;-64
2022/11/06 09:35:26;;;;;;;;;;;10.20;99.90;;;;;;5051085;28;19983;-64
2022/11/06 09:37:53;;;;;;;;;;;10.60;99.90;;;;;;5047695;28;20476;-63
2022/11/06 09:40:26;;;;;;;;;;;10.90;99.90;;;;;;5048966;28;19972;-64
2022/11/06 09:43:00;;;;;;;;;;;11.10;99.90;;;;;;5051673;28;20946;-64
2022/11/06 09:45:29;;;;;;;;;;;11.20;99.90;;;;;;5048428;28;19976;-64
2022/11/06 09:47:59;;;;;;;;;;;10.80;99.90;;;;;;5050176;28;19972;-64
2022/11/06 09:50:29;;;;;;;;;;;11.10;99.90;;;;;;5044685;28;19982;-64
2022/11/06 09:52:58;;;;;;;;;;;11.50;99.90;;;;;;5052490;28;20737;-64
2022/11/06 09:55:37;;;;;;;;;;;12.00;99.90;;;;;;5048956;28;20867;-64
2022/11/06 09:58:09;;;;;;;;;;;11.90;99.90;;;;;;5043880;28;20080;-64
2022/11/06 10:00:38;;;;;;;;;;;12.10;99.90;;;;;;5046663;28;19976;-64
2022/11/06 10:03:11;;;;;;;;;;;12.20;99.90;;;;;;5052626;28;20009;-66
2022/11/06 10:05:40;;;;;;;;;;;12.40;99.90;;;;;;5048036;28;19964;-64
2022/11/06 10:08:13;;;;;;;;;;;12.50;99.90;;;;;;5044360;28;19972;-64
2022/11/06 10:10:50;;;;;;;;;;;12.50;99.90;;;;;;5046235;28;20021;-64
2022/11/06 10:13:23;;;;;;;;;;;12.60;99.90;;;;;;5050443;28;19982;-64
2022/11/06 10:15:53;;;;;;;;;;;12.50;99.90;;;;;;5049403;28;19972;-65
2022/11/06 10:18:29;;;;;;;;;;;12.40;99.90;;;;;;5045072;28;19967;-63
2022/11/06 10:21:01;;;;;;;;;;;12.70;99.90;;;;;;5046916;28;19971;-63
2022/11/06 10:23:33;;;;;;;;;;;13.00;99.90;;;;;;5047493;28;20002;-64
2022/11/06 10:26:07;;;;;;;;;;;13.10;99.90;;;;;;5047544;28;19971;-64
2022/11/06 10:28:43;;;;;;;;;;;13.40;99.90;;;;;;5043643;28;19978;-64
2022/11/06 10:31:14;;;;;;;;;;;13.60;99.90;;;;;;5046643;28;19968;-63
2022/11/06 10:33:49;;;;;;;;;;;13.90;99.90;;;;;;5049324;28;19968;-64
2022/11/06 10:36:18;;;;;;;;;;;14.20;99.90;;;;;;5052289;28;19983;-64
2022/11/06 10:38:47;;;;;;;;;;;14.40;99.90;;;;;;5042285;28;19966;-64
2022/11/06 10:41:19;;;;;;;;;;;14.70;99.90;;;;;;5048483;28;19972;-65
2022/11/06 10:43:49;;;;;;;;;;;14.70;99.90;;;;;;5047561;28;21216;-64
2022/11/06 10:46:20;;;;;;;;;;;14.60;99.90;;;;;;5046235;28;19972;-64
2022/11/06 10:48:51;;;;;;;;;;;14.40;99.90;;;;;;5042872;28;20558;-64
2022/11/06 10:51:24;;;;;;;;;;;14.60;99.90;;;;;;5049701;28;19983;-64
2022/11/06 10:53:58;;;;;;;;;;;14.80;99.90;;;;;;5049641;28;19979;-64
2022/11/06 10:56:39;;;;;;;;;;;14.90;99.90;;;;;;5046187;28;19972;-64
2022/11/06 10:59:08;;;;;;;;;;;15.20;99.90;;;;;;5049827;28;20618;-64
2022/11/06 11:01:37;;;;;;;;;;;15.30;99.90;;;;;;5044285;28;19991;-64
2022/11/06 11:04:04;;;;;;;;;;;15.50;99.90;;;;;;5049049;28;19971;-65
2022/11/06 11:06:32;;;;;;;;;;;15.50;99.90;;;;;;5049572;28;19979;-65
2022/11/06 11:09:00;;;;;;;;;;;15.60;99.90;;;;;;5046508;28;19978;-64
2022/11/06 11:11:28;;;;;;;;;;;16.00;99.90;;;;;;5046354;28;19983;-64
2022/11/06 11:14:14;;;;;;;;;;;16.30;99.90;;;;;;5045333;28;19979;-64
2022/11/06 11:16:43;;;;;;;;;;;16.70;99.90;;;;;;5048831;28;20486;-64
2022/11/06 11:19:15;;;;;;;;;;;16.80;99.90;;;;;;5046869;28;19967;-64
2022/11/06 11:21:52;;;;;;;;;;;16.70;99.90;;;;;;5043692;28;19964;-64
2022/11/06 11:24:19;;;;;;;;;;;17.00;99.90;;;;;;5046168;28;19983;-64
2022/11/06 11:26:48;;;;;;;;;;;17.40;99.90;;;;;;5047668;28;19971;-64
2022/11/06 11:29:21;;;;;;;;;;;17.60;99.90;;;;;;5042207;28;19975;-65
2022/11/06 11:31:50;;;;;;;;;;;17.70;99.90;;;;;;5045050;28;19966;-65
2022/11/06 11:34:19;;;;;;;;;;;17.80;99.90;;;;;;5045731;28;19981;-64
2022/11/06 11:36:48;;;;;;;;;;;17.50;99.90;;;;;;5048699;28;19971;-64
2022/11/06 11:39:17;;;;;;;;;;;17.70;99.90;;;;;;5041919;28;20012;-65
2022/11/06 11:41:45;;;;;;;;;;;17.70;99.90;;;;;;5050399;28;20439;-64
2022/11/06 11:44:18;;;;;;;;;;;17.60;99.90;;;;;;5047010;28;19973;-64
2022/11/06 11:46:47;;;;;;;;;;;17.60;99.90;;;;;;5047451;28;20018;-65
2022/11/06 11:49:28;;;;;;;;;;;17.70;99.90;;;;;;5042788;28;19973;-64
2022/11/06 11:51:56;;;;;;;;;;;17.70;99.90;;;;;;5046527;28;20060;-64
2022/11/06 11:54:26;;;;;;;;;;;17.60;99.90;;;;;;5046515;28;19974;-65
2022/11/06 11:56:54;;;;;;;;;;;16.70;99.90;;;;;;5052593;28;19978;-64
2022/11/06 11:59:36;;;;;;;;;;;16.10;99.90;;;;;;5060202;22;19972;-64
2022/11/06 12:02:11;;;;;;;;;;;15.40;99.90;;;;;;5040980;28;19970;-64
2022/11/06 12:04:41;;;;;;;;;;;14.70;99.90;;;;;;5042535;28;19988;-62
2022/11/06 12:07:14;;;;;;;;;;;14.20;99.90;;;;;;5041560;28;19968;-62
2022/11/06 12:09:43;;;;;;;;;;;14.00;99.90;;;;;;5039321;28;19968;-63
2022/11/06 12:12:20;;;;;;;;;;;13.90;99.90;;;;;;5040486;28;20229;-62
2022/11/06 12:15:02;;;;;;;;;;;13.80;99.90;;;;;;5041247;28;19972;-62
2022/11/06 12:17:32;;;;;;;;;;;13.60;99.90;;;;;;5041757;28;19976;-64
2022/11/06 12:20:00;;;;;;;;;;;13.40;99.90;;;;;;5039102;28;20621;-62
2022/11/06 12:22:30;;;;;;;;;;;13.20;99.90;;;;;;5041485;28;19983;-63
2022/11/06 12:25:00;;;;;;;;;;;13.00;99.90;;;;;;5042298;28;19968;-62
2022/11/06 12:27:29;;;;;;;;;;;13.00;99.90;;;;;;5038840;28;19994;-62
2022/11/06 12:30:03;;;;;;;;;;;13.00;99.90;;;;;;5038954;28;19972;-63
2022/11/06 12:32:39;;;;;;;;;;;13.10;99.90;;;;;;5041932;28;19998;-63
2022/11/06 12:35:13;;;;;;;;;;;13.20;99.90;;;;;;5041701;28;20542;-63
2022/11/06 12:37:44;;;;;;;;;;;13.30;99.90;;;;;;5042111;28;19963;-62
2022/11/06 12:40:17;;;;;;;;;;;13.40;99.90;;;;;;5035715;28;20063;-62
2022/11/06 12:42:59;;;;;;;;;;;13.50;99.90;;;;;;5039282;28;19975;-63
2022/11/06 12:45:35;;;;;;;;;;;13.50;99.90;;;;;;5040436;28;19983;-62
2022/11/06 12:48:09;;;;;;;;;;;13.50;99.90;;;;;;5045969;28;20350;-62
2022/11/06 12:50:41;;;;;;;;;;;13.40;99.90;;;;;;5051294;28;20512;-62
2022/11/06 12:53:13;;;;;;;;;;;13.50;99.90;;;;;;5051959;28;20340;-62
2022/11/06 12:55:43;;;;;;;;;;;13.40;99.90;;;;;;5045146;28;19964;-64
2022/11/06 12:58:18;;;;;;;;;;;13.10;99.90;;;;;;4988152;28;1865703;-62
2022/11/06 13:00:52;;;;;;;;;;;13.00;99.90;;;;;;5053925;28;19976;-63
2022/11/06 13:03:36;;;;;;;;;;;13.00;99.90;;;;;;5054074;28;19996;-64
2022/11/06 13:06:07;;;;;;;;;;;12.90;99.90;;;;;;5054498;28;19994;-63
2022/11/06 13:08:44;;;;;;;;;;;13.00;99.90;;;;;;5053372;28;20063;-63
2022/11/06 13:11:17;;;;;;;;;;;13.10;99.90;;;;;;5053736;28;20065;-63
2022/11/06 13:13:55;;;;;;;;;;;13.00;99.90;;;;;;5053881;28;19968;-63
2022/11/06 13:16:28;;;;;;;;;;;13.10;99.90;;;;;;5053927;28;19968;-62
2022/11/06 13:19:00;;;;;;;;;;;13.00;99.90;;;;;;5053769;28;19968;-63
2022/11/06 13:21:32;;;;;;;;;;;13.00;99.90;;;;;;5053695;28;20398;-63
2022/11/06 13:24:02;;;;;;;;;;;13.00;99.90;;;;;;5053566;28;19964;-63
2022/11/06 13:26:34;;;;;;;;;;;13.00;99.90;;;;;;5053605;28;19976;-63
2022/11/06 13:29:02;;;;;;;;;;;12.80;99.90;;;;;;5053715;28;19972;-63
2022/11/06 13:31:35;;;;;;;;;;;12.90;99.90;;;;;;5053488;28;19979;-63
2022/11/06 13:34:05;;;;;;;;;;;13.00;99.90;;;;;;5053321;28;20460;-65
2022/11/06 13:36:35;;;;;;;;;;;12.90;99.90;;;;;;5053347;28;19978;-63
2022/11/06 13:39:06;;;;;;;;;;;13.00;99.90;;;;;;5053224;28;19978;-63
2022/11/06 13:41:34;;;;;;;;;;;13.00;99.90;;;;;;5053324;28;19979;-63
2022/11/06 13:44:02;;;;;;;;;;;13.10;99.90;;;;;;5053594;28;19968;-63
2022/11/06 13:46:36;;;;;;;;;;;13.10;99.90;;;;;;5053220;28;19968;-63
2022/11/06 13:49:10;;;;;;;;;;;12.90;99.90;;;;;;5052956;28;20352;-63
2022/11/06 13:51:41;;;;;;;;;;;12.90;99.90;;;;;;5052735;28;19987;-63
2022/11/06 13:54:12;;;;;;;;;;;12.80;99.90;;;;;;5052977;28;19968;-63
2022/11/06 13:56:45;;;;;;;;;;;12.60;99.90;;;;;;5053109;28;19968;-63
2022/11/06 13:59:25;;;;;;;;;;;12.70;99.90;;;;;;5052711;28;19977;-63
2022/11/06 14:02:11;;;;;;;;;;;12.60;99.90;;;;;;5052709;28;19968;-63
2022/11/06 14:04:54;;;;;;;;;;;12.60;99.90;;;;;;5053420;28;19972;-63
2022/11/06 14:07:22;;;;;;;;;;;12.50;99.90;;;;;;5053056;28;19967;-63
2022/11/06 14:09:50;;;;;;;;;;;12.50;99.90;;;;;;5052469;28;19974;-63
2022/11/06 14:12:19;;;;;;;;;;;12.40;99.90;;;;;;5052507;28;19972;-63
2022/11/06 14:14:48;;;;;;;;;;;12.30;99.90;;;;;;5052718;28;20544;-62
2022/11/06 14:17:21;;;;;;;;;;;12.30;99.90;;;;;;5052747;28;20363;-63
2022/11/06 14:20:04;;;;;;;;;;;12.20;99.90;;;;;;5051566;28;19979;-63
2022/11/06 14:22:35;;;;;;;;;;;12.20;99.90;;;;;;5052509;28;19978;-63
2022/11/06 14:25:17;;;;;;;;;;;12.10;99.90;;;;;;5052542;28;19974;-64
2022/11/06 14:28:03;;;;;;;;;;;12.00;99.90;;;;;;5052101;28;20506;-63
2022/11/06 14:30:51;;;;;;;;;;;11.90;99.90;;;;;;5052177;28;19968;-65
2022/11/06 14:34:00;;;;;;;;;;;11.90;99.90;;;;;;5052506;28;20062;-65
2022/11/06 14:36:31;;;;;;;;;;;11.70;99.90;;;;;;5052560;28;20019;-64
2022/11/06 14:39:00;;;;;;;;;;;11.70;99.90;;;;;;5052484;28;20030;-63
2022/11/06 14:41:46;;;;;;;;;;;11.70;99.90;;;;;;5051749;28;19968;-64
2022/11/06 14:44:25;;;;;;;;;;;11.60;99.90;;;;;;5052620;28;19972;-64
2022/11/06 14:46:55;;;;;;;;;;;11.70;99.90;;;;;;5052670;28;20395;-64
2022/11/06 14:49:30;;;;;;;;;;;11.60;99.90;;;;;;5051951;28;20439;-64
2022/11/06 14:51:59;;;;;;;;;;;11.60;99.90;;;;;;5051763;28;19970;-64
2022/11/06 14:54:27;;;;;;;;;;;11.50;99.90;;;;;;5052146;28;19968;-63
2022/11/06 14:56:55;;;;;;;;;;;11.50;99.90;;;;;;5052378;28;19974;-64